sensor_id;sensor_type;location;lat;lon;timestamp;pressure;altitude;pressure_sealevel;temperature;humidity
42945;BME280;28584;42.636;23.294;2023-05-23T00:01:28;160932.78;;;8.94;100.00
42945;BME280;28584;42.636;23.294;2023-05-23T00:03:56;160924.75;;;8.91;100.00
42945;BME280;28584;42.636;23.294;2023-05-23T00:06:21;160880.75;;;8.74;100.00
42945;BME280;28584;42.636;23.294;2023-05-23T00:08:47;160864.72;;;8.68;100.00
42945;BME280;28584;42.636;23.294;2023-05-23T00:11:12;160866.09;;;8.69;100.00
42945;BME280;28584;42.636;23.294;2023-05-23T00:13:38;160847.41;;;8.62;100.00
42945;BME280;28584;42.636;23.294;2023-05-23T00:16:04;160862.06;;;8.67;100.00
42945;BME280;28584;42.636;23.294;2023-05-23T00:18:36;160859.41;;;8.66;100.00
42945;BME280;28584;42.636;23.294;2023-05-23T00:21:04;160867.44;;;8.69;100.00
42945;BME280;28584;42.636;23.294;2023-05-23T00:23:29;160880.75;;;8.74;100.00
42945;BME280;28584;42.636;23.294;2023-05-23T00:25:58;160931.47;;;8.93;100.00
42945;BME280;28584;42.636;23.294;2023-05-23T00:28:24;160955.47;;;9.02;100.00
42945;BME280;28584;42.636;23.294;2023-05-23T00:30:50;160946.16;;;8.99;100.00
42945;BME280;28584;42.636;23.294;2023-05-23T00:33:16;160926.13;;;8.91;100.00
42945;BME280;28584;42.636;23.294;2023-05-23T00:35:46;160966.13;;;9.06;100.00
42945;BME280;28584;42.636;23.294;2023-05-23T00:38:11;160950.16;;;9.00;100.00
42945;BME280;28584;42.636;23.294;2023-05-23T00:40:38;160958.16;;;9.03;100.00
42945;BME280;28584;42.636;23.294;2023-05-23T00:43:04;160968.84;;;9.07;100.00
42945;BME280;28584;42.636;23.294;2023-05-23T00:45:36;160978.16;;;9.11;100.00
42945;BME280;28584;42.636;23.294;2023-05-23T00:48:02;160963.47;;;9.05;100.00
42945;BME280;28584;42.636;23.294;2023-05-23T00:50:28;160960.81;;;9.04;100.00
42945;BME280;28584;42.636;23.294;2023-05-23T00:52:54;160955.47;;;9.02;100.00
42945;BME280;28584;42.636;23.294;2023-05-23T00:55:22;160958.16;;;9.03;100.00
42945;BME280;28584;42.636;23.294;2023-05-23T00:57:49;160935.47;;;8.95;100.00
42945;BME280;28584;42.636;23.294;2023-05-23T01:00:16;160926.13;;;8.91;100.00
42945;BME280;28584;42.636;23.294;2023-05-23T01:02:46;160920.81;;;8.89;100.00
42945;BME280;28584;42.636;23.294;2023-05-23T01:05:13;160952.81;;;9.01;100.00
42945;BME280;28584;42.636;23.294;2023-05-23T01:07:42;160960.81;;;9.04;100.00
42945;BME280;28584;42.636;23.294;2023-05-23T01:10:08;160955.47;;;9.02;100.00
42945;BME280;28584;42.636;23.294;2023-05-23T01:15:20;160918.09;;;8.88;100.00
42945;BME280;28584;42.636;23.294;2023-05-23T01:17:58;160911.44;;;8.86;100.00
42945;BME280;28584;42.636;23.294;2023-05-23T01:28:49;160870.09;;;8.70;100.00
42945;BME280;28584;42.636;23.294;2023-05-23T01:31:17;160854.06;;;8.64;100.00
42945;BME280;28584;42.636;23.294;2023-05-23T01:33:42;160854.06;;;8.64;100.00
42945;BME280;28584;42.636;23.294;2023-05-23T01:36:11;160856.78;;;8.65;100.00
42945;BME280;28584;42.636;23.294;2023-05-23T01:38:37;160859.41;;;8.66;100.00
42945;BME280;28584;42.636;23.294;2023-05-23T01:41:02;160911.44;;;8.86;100.00
42945;BME280;28584;42.636;23.294;2023-05-23T01:43:28;160923.47;;;8.90;100.00
42945;BME280;28584;42.636;23.294;2023-05-23T01:45:55;160936.78;;;8.95;100.00
42945;BME280;28584;42.636;23.294;2023-05-23T01:48:22;160927.47;;;8.92;100.00
42945;BME280;28584;42.636;23.294;2023-05-23T01:50:49;160896.78;;;8.80;100.00
42945;BME280;28584;42.636;23.294;2023-05-23T01:53:17;160863.44;;;8.68;100.00
42945;BME280;28584;42.636;23.294;2023-05-23T01:55:42;160870.09;;;8.70;100.00
42945;BME280;28584;42.636;23.294;2023-05-23T01:58:09;160832.75;;;8.56;100.00
42945;BME280;28584;42.636;23.294;2023-05-23T02:00:34;160811.41;;;8.48;100.00
42945;BME280;28584;42.636;23.294;2023-05-23T02:03:00;160903.44;;;8.83;100.00
42945;BME280;28584;42.636;23.294;2023-05-23T02:05:25;160904.78;;;8.83;100.00
42945;BME280;28584;42.636;23.294;2023-05-23T02:07:51;160918.09;;;8.88;100.00
42945;BME280;28584;42.636;23.294;2023-05-23T02:10:18;160878.09;;;8.73;100.00
42945;BME280;28584;42.636;23.294;2023-05-23T02:12:44;160864.72;;;8.68;100.00
42945;BME280;28584;42.636;23.294;2023-05-23T02:15:10;160851.41;;;8.63;100.00
42945;BME280;28584;42.636;23.294;2023-05-23T02:17:35;160851.41;;;8.63;100.00
42945;BME280;28584;42.636;23.294;2023-05-23T02:20:03;160851.41;;;8.63;100.00
42945;BME280;28584;42.636;23.294;2023-05-23T02:22:28;160864.72;;;8.68;100.00
42945;BME280;28584;42.636;23.294;2023-05-23T02:24:54;160884.75;;;8.76;100.00
42945;BME280;28584;42.636;23.294;2023-05-23T02:27:19;160892.78;;;8.79;100.00
42945;BME280;28584;42.636;23.294;2023-05-23T02:29:45;160906.09;;;8.84;100.00
42945;BME280;28584;42.636;23.294;2023-05-23T02:32:10;160900.78;;;8.82;100.00
42945;BME280;28584;42.636;23.294;2023-05-23T02:34:35;160880.75;;;8.74;100.00
42945;BME280;28584;42.636;23.294;2023-05-23T02:37:03;160871.44;;;8.71;100.00
42945;BME280;28584;42.636;23.294;2023-05-23T02:39:28;160896.78;;;8.80;100.00
42945;BME280;28584;42.636;23.294;2023-05-23T02:41:54;160959.47;;;9.04;100.00
42945;BME280;28584;42.636;23.294;2023-05-23T02:44:19;161032.91;;;9.31;100.00
42945;BME280;28584;42.636;23.294;2023-05-23T02:46:45;160972.84;;;9.09;100.00
42945;BME280;28584;42.636;23.294;2023-05-23T02:49:10;160947.44;;;8.99;100.00
42945;BME280;28584;42.636;23.294;2023-05-23T02:51:36;160966.13;;;9.06;100.00
42945;BME280;28584;42.636;23.294;2023-05-23T02:54:01;160995.53;;;9.17;100.00
42945;BME280;28584;42.636;23.294;2023-05-23T02:56:27;160974.16;;;9.09;100.00
42945;BME280;28584;42.636;23.294;2023-05-23T02:58:52;160992.81;;;9.16;100.00
42945;BME280;28584;42.636;23.294;2023-05-23T03:01:18;160950.16;;;9.00;100.00
42945;BME280;28584;42.636;23.294;2023-05-23T03:03:44;160946.16;;;8.99;100.00
42945;BME280;28584;42.636;23.294;2023-05-23T03:06:09;160951.47;;;9.01;100.00
42945;BME280;28584;42.636;23.294;2023-05-23T03:08:39;160926.13;;;8.91;100.00
42945;BME280;28584;42.636;23.294;2023-05-23T03:11:04;160952.81;;;9.01;100.00
42945;BME280;28584;42.636;23.294;2023-05-23T03:13:30;160991.53;;;9.16;100.00
42945;BME280;28584;42.636;23.294;2023-05-23T03:15:55;161027.53;;;9.29;100.00
42945;BME280;28584;42.636;23.294;2023-05-23T03:18:20;161066.25;;;9.44;100.00
42945;BME280;28584;42.636;23.294;2023-05-23T03:20:46;161102.28;;;9.57;100.00
42945;BME280;28584;42.636;23.294;2023-05-23T03:23:11;161142.38;;;9.72;100.00
42945;BME280;28584;42.636;23.294;2023-05-23T03:25:38;161190.41;;;9.90;100.00
42945;BME280;28584;42.636;23.294;2023-05-23T03:28:03;161230.47;;;10.05;100.00
42945;BME280;28584;42.636;23.294;2023-05-23T03:30:29;161289.25;;;10.27;100.00
42945;BME280;28584;42.636;23.294;2023-05-23T03:32:54;161336.03;;;10.45;100.00
42945;BME280;28584;42.636;23.294;2023-05-23T03:35:20;161348.06;;;10.49;100.00
42945;BME280;28584;42.636;23.294;2023-05-23T03:37:45;161388.13;;;10.64;100.00
42945;BME280;28584;42.636;23.294;2023-05-23T03:40:11;161457.63;;;10.90;100.00
42945;BME280;28584;42.636;23.294;2023-05-23T03:42:38;161544.50;;;11.23;100.00
42945;BME280;28584;42.636;23.294;2023-05-23T03:45:04;161634.06;;;11.57;100.00
42945;BME280;28584;42.636;23.294;2023-05-23T03:47:29;161702.31;;;11.82;100.00
42945;BME280;28584;42.636;23.294;2023-05-23T03:49:55;161749.09;;;12.00;100.00
42945;BME280;28584;42.636;23.294;2023-05-23T03:52:20;161829.34;;;12.30;100.00
42945;BME280;28584;42.636;23.294;2023-05-23T03:54:46;161881.53;;;12.49;100.00
42945;BME280;28584;42.636;23.294;2023-05-23T03:57:11;161890.88;;;12.53;100.00
42945;BME280;28584;42.636;23.294;2023-05-23T03:59:37;161952.44;;;12.76;100.00
42945;BME280;28584;42.636;23.294;2023-05-23T04:02:02;161947.09;;;12.74;100.00
42945;BME280;28584;42.636;23.294;2023-05-23T04:04:28;162051.53;;;13.13;100.00
42945;BME280;28584;42.636;23.294;2023-05-23T04:06:53;161901.63;;;12.57;100.00
42945;BME280;28584;42.636;23.294;2023-05-23T04:09:19;161688.91;;;11.77;100.00
42945;BME280;28584;42.636;23.294;2023-05-23T04:11:44;161749.09;;;12.00;100.00
42945;BME280;28584;42.636;23.294;2023-05-23T04:14:10;161852.09;;;12.38;100.00
42945;BME280;28584;42.636;23.294;2023-05-23T04:16:37;161963.13;;;12.80;100.00
42945;BME280;28584;42.636;23.294;2023-05-23T04:19:05;162054.19;;;13.14;100.00
42945;BME280;28584;42.636;23.294;2023-05-23T04:21:31;162138.56;;;13.45;100.00
42945;BME280;28584;42.636;23.294;2023-05-23T04:23:56;162150.63;;;13.50;100.00
42945;BME280;28584;42.636;23.294;2023-05-23T04:26:22;161698.28;;;11.81;100.00
42945;BME280;28584;42.636;23.294;2023-05-23T04:28:47;161687.59;;;11.77;100.00
42945;BME280;28584;42.636;23.294;2023-05-23T04:31:13;161670.19;;;11.70;100.00
42945;BME280;28584;42.636;23.294;2023-05-23T04:33:39;161877.50;;;12.48;100.00
42945;BME280;28584;42.636;23.294;2023-05-23T04:36:05;162062.25;;;13.17;100.00
42945;BME280;28584;42.636;23.294;2023-05-23T04:38:34;162188.13;;;13.64;100.00
42945;BME280;28584;42.636;23.294;2023-05-23T04:40:59;162255.06;;;13.89;100.00
42945;BME280;28584;42.636;23.294;2023-05-23T04:43:25;162121.13;;;13.39;100.00
42945;BME280;28584;42.636;23.294;2023-05-23T04:45:59;161955.09;;;12.77;100.00
42945;BME280;28584;42.636;23.294;2023-05-23T04:48:26;162066.25;;;13.18;100.00
42945;BME280;28584;42.636;23.294;2023-05-23T04:50:52;162085.00;;;13.25;100.00
42945;BME280;28584;42.636;23.294;2023-05-23T04:53:21;162101.06;;;13.31;100.00
42945;BME280;28584;42.636;23.294;2023-05-23T04:55:47;162276.47;;;13.97;100.00
42945;BME280;28584;42.636;23.294;2023-05-23T04:58:12;162075.59;;;13.22;100.00
42945;BME280;28584;42.636;23.294;2023-05-23T05:00:37;161893.56;;;12.54;100.00
42945;BME280;28584;42.636;23.294;2023-05-23T05:03:03;161841.41;;;12.34;100.00
42945;BME280;28584;42.636;23.294;2023-05-23T05:05:28;161805.25;;;12.21;100.00
42945;BME280;28584;42.636;23.294;2023-05-23T05:07:54;161972.53;;;12.83;100.00
42945;BME280;28584;42.636;23.294;2023-05-23T05:10:19;162027.44;;;13.04;100.00
42945;BME280;28584;42.636;23.294;2023-05-23T05:12:45;162099.72;;;13.31;100.00
42945;BME280;28584;42.636;23.294;2023-05-23T05:15:20;162182.72;;;13.62;100.00
42945;BME280;28584;42.636;23.294;2023-05-23T05:17:45;162277.84;;;13.98;100.00
42945;BME280;28584;42.636;23.294;2023-05-23T05:20:11;162173.34;;;13.58;100.00
42945;BME280;28584;42.636;23.294;2023-05-23T05:22:36;162389.03;;;14.39;100.00
42945;BME280;28584;42.636;23.294;2023-05-23T05:25:05;162509.66;;;14.84;100.00
42945;BME280;28584;42.636;23.294;2023-05-23T05:27:31;162634.31;;;15.31;100.00
42945;BME280;28584;42.636;23.294;2023-05-23T05:29:57;162697.38;;;15.54;100.00
42945;BME280;28584;42.636;23.294;2023-05-23T05:32:27;162783.25;;;15.86;100.00
42945;BME280;28584;42.636;23.294;2023-05-23T05:34:55;162828.84;;;16.03;100.00
42945;BME280;28584;42.636;23.294;2023-05-23T05:37:20;162748.34;;;15.73;100.00
42945;BME280;28584;42.636;23.294;2023-05-23T05:39:46;162893.25;;;16.27;100.00
42945;BME280;28584;42.636;23.294;2023-05-23T05:42:11;163012.72;;;16.72;100.00
42945;BME280;28584;42.636;23.294;2023-05-23T05:44:37;163006.00;;;16.70;100.00
42945;BME280;28584;42.636;23.294;2023-05-23T05:47:02;163022.06;;;16.76;100.00
42945;BME280;28584;42.636;23.294;2023-05-23T05:49:28;163035.53;;;16.81;100.00
42945;BME280;28584;42.636;23.294;2023-05-23T05:51:53;163081.16;;;16.98;100.00
42945;BME280;28584;42.636;23.294;2023-05-23T05:54:18;163204.72;;;17.44;100.00
42945;BME280;28584;42.636;23.294;2023-05-23T05:56:45;163293.38;;;17.77;100.00
42945;BME280;28584;42.636;23.294;2023-05-23T05:59:10;163365.84;;;18.04;100.00
42945;BME280;28584;42.636;23.294;2023-05-23T06:01:36;163500.28;;;18.54;100.00
42945;BME280;28584;42.636;23.294;2023-05-23T06:04:02;163645.47;;;19.08;100.00
42945;BME280;28584;42.636;23.294;2023-05-23T06:06:27;163666.97;;;19.16;100.00
42945;BME280;28584;42.636;23.294;2023-05-23T06:08:52;163715.41;;;19.34;100.00
42945;BME280;28584;42.636;23.294;2023-05-23T06:11:18;163871.41;;;19.92;97.98
42945;BME280;28584;42.636;23.294;2023-05-23T06:13:43;163941.38;;;20.18;86.08
42945;BME280;28584;42.636;23.294;2023-05-23T06:16:09;163599.75;;;18.91;100.00
42945;BME280;28584;42.636;23.294;2023-05-23T06:18:34;163390.06;;;18.13;100.00
42945;BME280;28584;42.636;23.294;2023-05-23T06:20:59;163193.94;;;17.40;100.00
42945;BME280;28584;42.636;23.294;2023-05-23T06:23:25;163265.16;;;17.66;100.00
42945;BME280;28584;42.636;23.294;2023-05-23T06:25:50;163022.06;;;16.76;100.00
42945;BME280;28584;42.636;23.294;2023-05-23T06:28:16;163024.78;;;16.77;100.00
42945;BME280;28584;42.636;23.294;2023-05-23T06:30:41;163061.00;;;16.90;100.00
42945;BME280;28584;42.636;23.294;2023-05-23T06:33:07;162802.03;;;15.93;100.00
42945;BME280;28584;42.636;23.294;2023-05-23T06:35:32;163106.66;;;17.07;100.00
42945;BME280;28584;42.636;23.294;2023-05-23T06:37:57;163253.03;;;17.62;100.00
42945;BME280;28584;42.636;23.294;2023-05-23T06:40:23;163497.63;;;18.53;100.00
42945;BME280;28584;42.636;23.294;2023-05-23T06:42:48;163249.00;;;17.60;100.00
42945;BME280;28584;42.636;23.294;2023-05-23T06:45:13;163742.31;;;19.44;100.00
42945;BME280;28584;42.636;23.294;2023-05-23T06:47:40;164031.59;;;20.52;88.01
42945;BME280;28584;42.636;23.294;2023-05-23T06:50:08;164280.63;;;21.44;75.93
42945;BME280;28584;42.636;23.294;2023-05-23T06:52:33;164388.38;;;21.85;68.92
42945;BME280;28584;42.636;23.294;2023-05-23T06:54:59;164682.16;;;22.94;65.08
42945;BME280;28584;42.636;23.294;2023-05-23T06:57:24;164883.06;;;23.68;60.10
42945;BME280;28584;42.636;23.294;2023-05-23T06:59:50;165020.72;;;24.20;56.07
42945;BME280;28584;42.636;23.294;2023-05-23T07:02:15;165036.84;;;24.26;55.70
42945;BME280;28584;42.636;23.294;2023-05-23T07:04:40;164995.03;;;24.10;54.59
42945;BME280;28584;42.636;23.294;2023-05-23T07:07:06;164914.09;;;23.80;57.04
42945;BME280;28584;42.636;23.294;2023-05-23T07:09:31;164051.72;;;20.59;62.60
42945;BME280;28584;42.636;23.294;2023-05-23T07:11:56;163766.53;;;19.53;90.82
42945;BME280;28584;42.636;23.294;2023-05-23T07:14:22;163551.34;;;18.73;100.00
42945;BME280;28584;42.636;23.294;2023-05-23T07:16:47;163535.25;;;18.67;100.00
42945;BME280;28584;42.636;23.294;2023-05-23T07:19:12;163653.50;;;19.11;100.00
42945;BME280;28584;42.636;23.294;2023-05-23T07:21:38;163977.75;;;20.32;97.84
42945;BME280;28584;42.636;23.294;2023-05-23T07:24:04;163806.84;;;19.68;91.34
42945;BME280;28584;42.636;23.294;2023-05-23T07:26:30;163903.69;;;20.04;98.38
42945;BME280;28584;42.636;23.294;2023-05-23T07:28:55;164218.69;;;21.21;76.68
42945;BME280;28584;42.636;23.294;2023-05-23T07:31:21;164533.88;;;22.39;70.72
42945;BME280;28584;42.636;23.294;2023-05-23T07:33:46;164585.09;;;22.58;64.40
42945;BME280;28584;42.636;23.294;2023-05-23T07:36:12;164692.94;;;22.98;61.87
42945;BME280;28584;42.636;23.294;2023-05-23T07:38:37;164800.84;;;23.38;59.04
42945;BME280;28584;42.636;23.294;2023-05-23T07:41:02;164906.00;;;23.77;57.10
42945;BME280;28584;42.636;23.294;2023-05-23T07:43:28;164926.19;;;23.84;57.68
42945;BME280;28584;42.636;23.294;2023-05-23T07:45:53;164943.75;;;23.91;56.45
42945;BME280;28584;42.636;23.294;2023-05-23T07:48:19;164624.19;;;22.72;57.37
42945;BME280;28584;42.636;23.294;2023-05-23T07:50:44;164552.75;;;22.46;59.31
42945;BME280;28584;42.636;23.294;2023-05-23T07:53:10;164889.81;;;23.71;56.40
42945;BME280;28584;42.636;23.294;2023-05-23T07:55:35;165005.81;;;24.14;53.62
42945;BME280;28584;42.636;23.294;2023-05-23T07:58:00;165107.03;;;24.52;51.53
42945;BME280;28584;42.636;23.294;2023-05-23T08:00:27;165171.84;;;24.76;51.88
42945;BME280;28584;42.636;23.294;2023-05-23T08:02:52;165136.75;;;24.63;52.81
42945;BME280;28584;42.636;23.294;2023-05-23T08:05:17;165024.75;;;24.21;53.02
42945;BME280;28584;42.636;23.294;2023-05-23T08:07:43;164919.47;;;23.82;53.39
42945;BME280;28584;42.636;23.294;2023-05-23T08:10:09;164749.53;;;23.19;54.61
42945;BME280;28584;42.636;23.294;2023-05-23T08:12:34;164791.38;;;23.34;55.55
42945;BME280;28584;42.636;23.294;2023-05-23T08:15:00;165009.88;;;24.16;55.02
42945;BME280;28584;42.636;23.294;2023-05-23T08:17:25;164981.56;;;24.05;54.22
42945;BME280;28584;42.636;23.294;2023-05-23T08:19:51;164989.66;;;24.08;54.59
42945;BME280;28584;42.636;23.294;2023-05-23T08:22:16;165019.34;;;24.19;54.29
42945;BME280;28584;42.636;23.294;2023-05-23T08:24:43;164997.78;;;24.11;53.38
42945;BME280;28584;42.636;23.294;2023-05-23T08:27:08;164723.94;;;23.09;55.70
42945;BME280;28584;42.636;23.294;2023-05-23T08:29:33;164892.50;;;23.72;56.86
42945;BME280;28584;42.636;23.294;2023-05-23T08:31:59;165047.63;;;24.30;52.63
42945;BME280;28584;42.636;23.294;2023-05-23T08:34:25;165208.25;;;24.89;49.12
42945;BME280;28584;42.636;23.294;2023-05-23T08:36:50;165232.56;;;24.98;50.60
42945;BME280;28584;42.636;23.294;2023-05-23T08:39:17;165124.53;;;24.58;50.40
42945;BME280;28584;42.636;23.294;2023-05-23T08:41:42;165193.41;;;24.84;52.33
42945;BME280;28584;42.636;23.294;2023-05-23T08:44:08;165181.25;;;24.79;51.42
42945;BME280;28584;42.636;23.294;2023-05-23T08:46:39;165223.09;;;24.95;51.57
42945;BME280;28584;42.636;23.294;2023-05-23T08:49:09;165489.06;;;25.93;47.65
42945;BME280;28584;42.636;23.294;2023-05-23T08:51:36;165639.06;;;26.49;45.21
42945;BME280;28584;42.636;23.294;2023-05-23T08:54:04;165529.66;;;26.08;46.75
42945;BME280;28584;42.636;23.294;2023-05-23T08:56:30;165502.66;;;25.98;41.12
42945;BME280;28584;42.636;23.294;2023-05-23T08:58:57;165510.78;;;26.01;42.69
42945;BME280;28584;42.636;23.294;2023-05-23T09:01:23;165514.78;;;26.03;41.62
42945;BME280;28584;42.636;23.294;2023-05-23T09:03:50;165464.81;;;25.84;42.06
42945;BME280;28584;42.636;23.294;2023-05-23T09:06:15;165548.59;;;26.15;43.67
42945;BME280;28584;42.636;23.294;2023-05-23T09:08:43;165474.22;;;25.88;41.72
42945;BME280;28584;42.636;23.294;2023-05-23T09:11:10;165433.75;;;25.73;39.36
42945;BME280;28584;42.636;23.294;2023-05-23T09:13:37;165555.31;;;26.18;38.72
42945;BME280;28584;42.636;23.294;2023-05-23T09:16:06;165246.03;;;25.03;39.75
42945;BME280;28584;42.636;23.294;2023-05-23T09:18:39;165186.69;;;24.81;40.61
42945;BME280;28584;42.636;23.294;2023-05-23T09:21:07;165233.88;;;24.99;40.96
42945;BME280;28584;42.636;23.294;2023-05-23T09:23:33;165084.09;;;24.43;42.23
42945;BME280;28584;42.636;23.294;2023-05-23T09:26:03;164852.06;;;23.57;43.18
42945;BME280;28584;42.636;23.294;2023-05-23T09:28:31;164876.34;;;23.66;43.13
42945;BME280;28584;42.636;23.294;2023-05-23T09:31:01;164954.59;;;23.95;44.14
42945;BME280;28584;42.636;23.294;2023-05-23T09:33:43;165181.25;;;24.79;43.60
42945;BME280;28584;42.636;23.294;2023-05-23T09:36:09;165205.56;;;24.88;42.24
42945;BME280;28584;42.636;23.294;2023-05-23T09:38:39;165165.09;;;24.73;40.89
42945;BME280;28584;42.636;23.294;2023-05-23T09:41:05;165135.31;;;24.62;39.96
42945;BME280;28584;42.636;23.294;2023-05-23T09:43:31;165262.25;;;25.09;40.34
42945;BME280;28584;42.636;23.294;2023-05-23T09:46:05;165167.78;;;24.74;39.91
42945;BME280;28584;42.636;23.294;2023-05-23T09:48:31;164981.56;;;24.05;42.33
42945;BME280;28584;42.636;23.294;2023-05-23T09:50:57;165138.13;;;24.63;41.08
42945;BME280;28584;42.636;23.294;2023-05-23T09:53:23;165270.34;;;25.12;40.72
42945;BME280;28584;42.636;23.294;2023-05-23T09:55:50;165381.09;;;25.53;38.48
42945;BME280;28584;42.636;23.294;2023-05-23T09:58:18;165513.47;;;26.02;39.43
42945;BME280;28584;42.636;23.294;2023-05-23T10:00:45;165567.47;;;26.22;37.40
42945;BME280;28584;42.636;23.294;2023-05-23T10:03:11;165397.25;;;25.59;37.52
42945;BME280;28584;42.636;23.294;2023-05-23T10:05:45;165252.78;;;25.06;38.98
42945;BME280;28584;42.636;23.294;2023-05-23T10:08:24;165405.38;;;25.62;38.53
42945;BME280;28584;42.636;23.294;2023-05-23T10:13:26;165324.41;;;25.32;39.41
42945;BME280;28584;42.636;23.294;2023-05-23T10:15:58;165174.53;;;24.77;39.88
42945;BME280;28584;42.636;23.294;2023-05-23T10:18:38;165271.66;;;25.13;37.94
42945;BME280;28584;42.636;23.294;2023-05-23T10:21:11;165375.66;;;25.51;37.27
42945;BME280;28584;42.636;23.294;2023-05-23T10:23:41;165305.44;;;25.25;37.10
42945;BME280;28584;42.636;23.294;2023-05-23T10:26:08;165236.63;;;25.00;38.09
42945;BME280;28584;42.636;23.294;2023-05-23T10:28:35;165134.00;;;24.62;39.26
42945;BME280;28584;42.636;23.294;2023-05-23T10:31:02;165210.94;;;24.90;38.29
42945;BME280;28584;42.636;23.294;2023-05-23T10:33:33;165132.66;;;24.61;37.82
42945;BME280;28584;42.636;23.294;2023-05-23T10:36:21;164989.66;;;24.08;38.65
42945;BME280;28584;42.636;23.294;2023-05-23T10:38:50;165009.88;;;24.16;38.98
42945;BME280;28584;42.636;23.294;2023-05-23T10:41:28;165084.09;;;24.43;39.23
42945;BME280;28584;42.636;23.294;2023-05-23T10:44:09;165356.78;;;25.44;38.02
42945;BME280;28584;42.636;23.294;2023-05-23T10:46:53;165597.19;;;26.33;37.17
42945;BME280;28584;42.636;23.294;2023-05-23T10:49:42;165416.16;;;25.66;36.36
42945;BME280;28584;42.636;23.294;2023-05-23T10:52:10;165240.66;;;25.01;37.28
42945;BME280;28584;42.636;23.294;2023-05-23T10:54:44;165246.03;;;25.03;37.81
42945;BME280;28584;42.636;23.294;2023-05-23T10:57:11;165132.66;;;24.61;38.04
42945;BME280;28584;42.636;23.294;2023-05-23T10:59:40;165102.97;;;24.50;38.74
42945;BME280;28584;42.636;23.294;2023-05-23T11:02:15;165289.25;;;25.19;37.57
42945;BME280;28584;42.636;23.294;2023-05-23T11:04:41;165318.97;;;25.30;38.50
42945;BME280;28584;42.636;23.294;2023-05-23T11:07:30;165204.19;;;24.88;39.20
42945;BME280;28584;42.636;23.294;2023-05-23T11:10:22;165390.50;;;25.57;37.73
42945;BME280;28584;42.636;23.294;2023-05-23T11:12:47;165459.38;;;25.82;36.85
42945;BME280;28584;42.636;23.294;2023-05-23T11:17:52;165647.16;;;26.52;35.62
42945;BME280;28584;42.636;23.294;2023-05-23T11:20:19;165743.09;;;26.88;34.18
42945;BME280;28584;42.636;23.294;2023-05-23T11:23:01;165697.16;;;26.71;34.27
42945;BME280;28584;42.636;23.294;2023-05-23T11:25:40;165431.06;;;25.72;35.07
42945;BME280;28584;42.636;23.294;2023-05-23T11:28:10;165510.78;;;26.01;35.34
42945;BME280;28584;42.636;23.294;2023-05-23T11:30:36;165362.19;;;25.46;36.29
42945;BME280;28584;42.636;23.294;2023-05-23T11:33:12;165335.19;;;25.36;37.24
42945;BME280;28584;42.636;23.294;2023-05-23T11:35:44;165343.31;;;25.39;36.34
42945;BME280;28584;42.636;23.294;2023-05-23T11:38:11;165401.31;;;25.61;35.68
42945;BME280;28584;42.636;23.294;2023-05-23T11:40:42;165300.03;;;25.23;35.51
42945;BME280;28584;42.636;23.294;2023-05-23T11:43:09;165273.03;;;25.13;37.17
42945;BME280;28584;42.636;23.294;2023-05-23T11:45:36;165302.72;;;25.24;36.16
42945;BME280;28584;42.636;23.294;2023-05-23T11:48:09;165329.78;;;25.34;34.87
42945;BME280;28584;42.636;23.294;2023-05-23T11:50:52;165346.00;;;25.40;34.13
42945;BME280;28584;42.636;23.294;2023-05-23T11:53:20;165490.44;;;25.94;34.71
42945;BME280;28584;42.636;23.294;2023-05-23T11:55:56;165337.88;;;25.37;36.17
42945;BME280;28584;42.636;23.294;2023-05-23T11:58:33;165196.09;;;24.85;36.30
42945;BME280;28584;42.636;23.294;2023-05-23T12:01:04;165177.22;;;24.78;37.00
42945;BME280;28584;42.636;23.294;2023-05-23T12:03:30;165065.19;;;24.36;36.66
42945;BME280;28584;42.636;23.294;2023-05-23T12:05:57;164911.38;;;23.79;36.16
42945;BME280;28584;42.636;23.294;2023-05-23T12:08:23;164754.97;;;23.21;38.48
42945;BME280;28584;42.636;23.294;2023-05-23T12:10:56;164634.97;;;22.76;39.52
42945;BME280;28584;42.636;23.294;2023-05-23T12:13:24;164562.19;;;22.49;40.46
42945;BME280;28584;42.636;23.294;2023-05-23T12:15:57;164574.34;;;22.54;40.96
42945;BME280;28584;42.636;23.294;2023-05-23T12:18:24;164601.28;;;22.64;41.02
42945;BME280;28584;42.636;23.294;2023-05-23T12:20:51;164525.78;;;22.36;39.14
42945;BME280;28584;42.636;23.294;2023-05-23T12:23:21;164409.97;;;21.93;41.46
42945;BME280;28584;42.636;23.294;2023-05-23T12:25:53;164284.69;;;21.46;40.32
42945;BME280;28584;42.636;23.294;2023-05-23T12:28:20;164272.53;;;21.41;41.16
42945;BME280;28584;42.636;23.294;2023-05-23T12:30:46;164296.75;;;21.50;41.57
42945;BME280;28584;42.636;23.294;2023-05-23T12:33:11;164310.25;;;21.55;39.15
42945;BME280;28584;42.636;23.294;2023-05-23T12:35:42;164288.72;;;21.47;42.34
42945;BME280;28584;42.636;23.294;2023-05-23T12:38:07;164312.91;;;21.56;42.08
42945;BME280;28584;42.636;23.294;2023-05-23T12:40:32;164319.66;;;21.59;41.77
42945;BME280;28584;42.636;23.294;2023-05-23T12:42:58;164312.91;;;21.56;42.21
42945;BME280;28584;42.636;23.294;2023-05-23T12:45:30;164299.47;;;21.51;42.62
42945;BME280;28584;42.636;23.294;2023-05-23T12:47:56;164277.91;;;21.43;42.40
42945;BME280;28584;42.636;23.294;2023-05-23T12:50:22;164234.84;;;21.27;43.13
42945;BME280;28584;42.636;23.294;2023-05-23T12:52:47;164298.13;;;21.51;44.07
42945;BME280;28584;42.636;23.294;2023-05-23T12:55:13;164345.28;;;21.69;42.35